Time;durP1;ratioP1;P1;durP2;ratioP2;P2;SDS_P1;SDS_P2;PMS_P1;PMS_P2;Temp;Humidity;BMP_temperature;BMP_pressure;BME280_temperature;BME280_humidity;BME280_pressure;Samples;Min_cycle;Max_cycle;Signal;HPM_P1;HPM_P2
2022/10/05 00:01:45;;;;;;;6.97;4.90;;;;;;;10.42;69.31;100803.84;4467697;32;34078;-78
2022/10/05 00:04:18;;;;;;;5.80;4.35;;;;;;;10.59;68.18;100812.25;4468700;32;33826;-80
2022/10/05 00:07:01;;;;;;;7.68;4.80;;;;;;;10.46;68.33;100812.38;4468942;32;33763;-79
2022/10/05 00:09:30;;;;;;;6.25;4.07;;;;;;;9.94;69.86;100806.28;4472320;32;33576;-79
2022/10/05 00:11:57;;;;;;;5.53;4.05;;;;;;;9.18;72.59;100807.91;4483326;32;34679;-78
2022/10/05 00:14:32;;;;;;;7.80;4.60;;;;;;;9.94;70.31;100803.56;4484737;32;34096;-79
2022/10/05 00:16:59;;;;;;;;;;;;;;;9.92;70.33;100803.78;4483696;32;33787;-78
2022/10/05 00:19:32;;;;;;;7.28;4.50;;;;;;;10.12;69.71;100802.81;4484877;32;33380;-78
2022/10/05 00:22:13;;;;;;;6.95;4.60;;;;;;;9.54;71.22;100801.06;4484542;32;34053;-79
2022/10/05 00:24:41;;;;;;;5.62;4.30;;;;;;;9.94;70.16;100796.25;4476080;32;34220;-78
2022/10/05 00:27:17;;;;;;;6.57;4.62;;;;;;;10.04;69.07;100795.75;4468727;32;34490;-78
2022/10/05 00:29:46;;;;;;;6.20;4.40;;;;;;;9.89;69.82;100797.97;4468776;32;34014;-79
2022/10/05 00:32:13;;;;;;;7.05;4.62;;;;;;;10.12;69.18;100794.69;4467373;32;34944;-78
2022/10/05 00:34:41;;;;;;;6.78;4.60;;;;;;;10.21;68.08;100796.87;4468762;32;34249;-79
2022/10/05 00:37:10;;;;;;;5.78;3.95;;;;;;;10.10;68.98;100791.34;4469036;32;34032;-79
2022/10/05 00:39:38;;;;;;;7.95;4.65;;;;;;;9.70;70.30;100784.31;4476581;32;33465;-79
2022/10/05 00:42:23;;;;;;;6.87;4.40;;;;;;;9.29;71.91;100785.56;4484190;32;33597;-80
2022/10/05 00:44:56;;;;;;;9.20;5.25;;;;;;;9.95;70.70;100787.06;4484524;32;34089;-79
2022/10/05 00:47:54;;;;;;;7.00;4.68;;;;;;;9.83;70.95;100788.84;4484280;32;33915;-79
2022/10/05 00:50:35;;;;;;;7.75;5.43;;;;;;;9.86;72.00;100799.22;4483146;32;34202;-79
2022/10/05 00:53:08;;;;;;;7.72;5.10;;;;;;;9.31;73.98;100794.31;4483344;32;34033;-79
2022/10/05 00:56:02;;;;;;;7.37;4.90;;;;;;;9.33;74.20;100797.66;4484392;32;34792;-78
2022/10/05 00:58:40;;;;;;;8.45;5.78;;;;;;;9.69;72.26;100798.91;4482940;32;33978;-79
2022/10/05 01:01:13;;;;;;;8.05;5.35;;;;;;;9.65;72.40;100801.25;4468397;32;33706;-77
2022/10/05 01:03:50;;;;;;;7.30;5.15;;;;;;;9.36;73.02;100799.91;4467364;32;34313;-78
2022/10/05 01:06:23;;;;;;;9.60;6.12;;;;;;;9.51;72.26;100801.53;4467489;32;35120;-79
2022/10/05 01:09:15;;;;;;;9.05;5.93;;;;;;;9.81;70.73;100791.75;4468021;32;33651;-78
2022/10/05 01:11:51;;;;;;;9.25;5.57;;;;;;;9.89;70.47;100792.53;4478736;32;34423;-78
2022/10/05 01:14:39;;;;;;;7.57;5.65;;;;;;;9.99;69.92;100799.13;4482870;32;34139;-78
2022/10/05 01:17:17;;;;;;;7.35;5.22;;;;;;;10.03;70.34;100810.37;4483843;32;33949;-80
2022/10/05 01:20:27;;;;;;;7.12;5.22;;;;;;;10.00;70.40;100806.22;4482793;32;35210;-78
2022/10/05 01:23:01;;;;;;;8.93;5.72;;;;;;;9.85;71.20;100811.13;4483563;32;33230;-80
2022/10/05 01:25:52;;;;;;;7.40;5.47;;;;;;;9.85;71.51;100813.84;4484199;32;34037;-78
2022/10/05 01:28:34;;;;;;;12.13;6.93;;;;;;;9.28;74.16;100816.41;4482727;32;34774;-79
2022/10/05 01:31:20;;;;;;;14.85;8.85;;;;;;;9.44;73.34;100815.09;4482224;32;34175;-78
2022/10/05 01:34:04;;;;;;;24.77;13.70;;;;;;;9.73;72.18;100821.81;4483445;32;33290;-79
2022/10/05 01:36:46;;;;;;;31.92;17.30;;;;;;;9.61;72.60;100831.66;4483738;32;34717;-79
2022/10/05 01:39:47;;;;;;;43.75;22.75;;;;;;;9.94;70.66;100834.22;4482277;32;34167;-79
2022/10/05 01:42:47;;;;;;;41.33;20.52;;;;;;;9.13;72.92;100838.31;4465233;31;34631;-80
2022/10/05 01:45:27;;;;;;;32.95;16.90;;;;;;;9.66;71.30;100826.44;4483447;32;34021;-80
2022/10/05 01:48:21;;;;;;;30.00;14.55;;;;;;;9.44;71.98;100824.06;4483892;32;34035;-79
2022/10/05 01:51:27;;;;;;;26.62;14.30;;;;;;;9.63;71.52;100816.03;4468292;32;34993;-78
2022/10/05 01:54:12;;;;;;;21.10;11.98;;;;;;;9.72;71.20;100814.75;4449671;32;33719;-79
2022/10/05 01:57:31;;;;;;;29.05;13.77;;;;;;;9.29;73.19;100811.81;4467478;32;33470;-78
2022/10/05 02:00:13;;;;;;;20.25;10.18;;;;;;;9.50;73.01;100822.34;4434235;32;33939;-79
2022/10/05 02:02:44;;;;;;;18.60;10.48;;;;;;;9.72;71.65;100825.59;4462164;32;34209;-78
2022/10/05 02:05:28;;;;;;;16.15;9.60;;;;;;;9.31;73.15;100826.81;4467378;32;33693;-80
2022/10/05 02:08:25;;;;;;;14.52;8.40;;;;;;;9.41;73.21;100834.47;4466529;32;34569;-78
2022/10/05 02:11:02;;;;;;;12.05;7.43;;;;;;;9.44;73.18;100837.59;4450905;32;33961;-78
2022/10/05 02:14:10;;;;;;;12.50;7.60;;;;;;;9.61;72.03;100843.34;4466241;32;34082;-79
2022/10/05 02:16:40;;;;;;;15.30;9.35;;;;;;;9.72;71.71;100843.72;4444917;32;33880;-78
2022/10/05 02:19:14;;;;;;;13.38;8.82;;;;;;;9.71;70.90;100848.31;4481735;32;33849;-79
2022/10/05 02:21:45;;;;;;;16.83;9.23;;;;;;;9.69;70.78;100849.56;4468517;32;34760;-79
2022/10/05 02:24:21;;;;;;;16.85;9.57;;;;;;;9.58;70.94;100842.94;4483525;32;34904;-78
2022/10/05 02:26:50;;;;;;;14.75;8.85;;;;;;;9.68;70.56;100837.09;4484440;32;33689;-77
2022/10/05 02:29:21;;;;;;;15.13;9.27;;;;;;;9.56;71.20;100843.16;4484220;32;34086;-78
2022/10/05 02:31:56;;;;;;;18.37;10.00;;;;;;;9.24;72.41;100839.53;4484490;32;34760;-78
2022/10/05 02:34:27;;;;;;;14.45;9.55;;;;;;;9.52;71.73;100844.63;4485081;32;33683;-80
2022/10/05 02:37:11;;;;;;;13.30;8.70;;;;;;;9.59;71.61;100844.59;4485348;32;33912;-80
2022/10/05 02:39:57;;;;;;;10.70;7.40;;;;;;;9.65;70.71;100846.44;4485437;32;34249;-78
2022/10/05 02:42:34;;;;;;;10.07;6.85;;;;;;;9.71;70.93;100855.59;4483760;32;33977;-79
2022/10/05 02:45:02;;;;;;;10.00;6.20;;;;;;;9.67;70.65;100847.06;4484276;32;33902;-79
2022/10/05 02:47:44;;;;;;;8.07;5.72;;;;;;;9.57;71.51;100844.00;4485338;32;33711;-79
2022/10/05 02:50:27;;;;;;;8.85;5.07;;;;;;;9.65;71.25;100847.31;4483743;32;33451;-79
2022/10/05 02:53:01;;;;;;;9.40;5.80;;;;;;;9.50;71.72;100851.31;4484962;32;34348;-79
2022/10/05 02:55:46;;;;;;;10.13;6.25;;;;;;;9.45;71.80;100847.37;4485129;32;33868;-79
2022/10/05 02:58:21;;;;;;;9.40;6.10;;;;;;;9.57;70.97;100849.44;4485054;32;34090;-78
2022/10/05 03:00:57;;;;;;;11.75;7.07;;;;;;;9.37;71.31;100849.47;4483810;32;33904;-79
2022/10/05 03:03:36;;;;;;;12.30;6.55;;;;;;;9.31;72.05;100842.22;4477212;32;33594;-77
2022/10/05 03:06:12;;;;;;;9.38;6.30;;;;;;;9.46;71.37;100848.22;4468681;32;34073;-79
2022/10/05 03:08:51;;;;;;;10.20;6.15;;;;;;;9.45;71.56;100839.25;4469668;32;33720;-80
2022/10/05 03:11:46;;;;;;;9.57;6.30;;;;;;;9.48;71.58;100832.59;4467898;32;33600;-78
2022/10/05 03:14:40;;;;;;;11.82;6.97;;;;;;;8.83;73.79;100835.25;4460932;32;33751;-78
2022/10/05 03:17:24;;;;;;;12.10;6.80;;;;;;;9.06;73.38;100831.25;4468458;32;33897;-80
2022/10/05 03:20:27;;;;;;;10.38;6.62;;;;;;;9.00;73.53;100827.50;4469374;32;34766;-79
2022/10/05 03:22:59;;;;;;;16.25;8.25;;;;;;;9.40;71.89;100817.41;4468265;32;34214;-79
2022/10/05 03:25:44;;;;;;;17.05;9.15;;;;;;;9.56;70.42;100817.94;4469361;32;34332;-79
2022/10/05 03:28:18;;;;;;;14.30;9.00;;;;;;;9.52;70.40;100812.12;4468344;32;34964;-78
2022/10/05 03:31:05;;;;;;;15.40;8.77;;;;;;;9.10;71.98;100810.84;4483060;32;33826;-78
2022/10/05 03:33:42;;;;;;;13.57;7.70;;;;;;;8.97;72.76;100819.84;4483264;32;34206;-78
2022/10/05 03:36:23;;;;;;;12.02;7.43;;;;;;;9.19;72.31;100820.37;4472490;32;33854;-78
2022/10/05 03:39:37;;;;;;;14.77;8.43;;;;;;;9.54;70.20;100815.44;4468333;32;35203;-79
2022/10/05 03:42:18;;;;;;;10.63;7.10;;;;;;;9.29;70.78;100820.78;4467104;32;34786;-79
2022/10/05 03:44:56;;;;;;;11.88;7.40;;;;;;;8.98;72.25;100824.19;4484948;32;33491;-78
2022/10/05 03:47:43;;;;;;;9.50;6.93;;;;;;;8.95;71.42;100828.16;4484810;32;33852;-79
2022/10/05 03:50:44;;;;;;;12.45;7.35;;;;;;;8.84;71.87;100831.50;4483640;32;35027;-79
2022/10/05 03:53:17;;;;;;;13.57;7.30;;;;;;;8.94;71.81;100831.06;4457758;32;33904;-79
2022/10/05 03:55:55;;;;;;;10.70;7.07;;;;;;;8.97;71.26;100838.78;4483480;32;33943;-80
2022/10/05 03:58:38;;;;;;;9.30;6.07;;;;;;;9.11;70.89;100845.81;4471468;32;35354;-78
2022/10/05 04:01:10;;;;;;;11.05;6.53;;;;;;;8.63;72.14;100849.63;4473583;32;33951;-79
2022/10/05 04:03:47;;;;;;;10.38;6.40;;;;;;;8.41;72.22;100849.00;4484373;32;33838;-73
2022/10/05 04:06:19;;;;;;;10.02;6.35;;;;;;;8.46;72.40;100853.78;4484554;32;34237;-74
2022/10/05 04:08:52;;;;;;;10.38;6.20;;;;;;;8.86;70.56;100856.50;4483545;32;34052;-75
2022/10/05 04:11:25;;;;;;;9.30;5.97;;;;;;;8.87;69.61;100850.03;4484470;32;35194;-73
2022/10/05 04:14:01;;;;;;;9.95;6.45;;;;;;;9.03;68.90;100838.75;4483478;32;34734;-74
2022/10/05 04:16:41;;;;;;;9.32;5.60;;;;;;;8.99;69.17;100844.81;4470292;32;33716;-73
2022/10/05 04:19:22;;;;;;;9.45;5.40;;;;;;;8.53;70.58;100848.38;4468056;32;33729;-74
2022/10/05 04:21:55;;;;;;;7.65;5.10;;;;;;;8.29;71.45;100853.34;4478851;32;34307;-71
2022/10/05 04:24:29;;;;;;;9.45;5.60;;;;;;;8.40;71.49;100860.87;4481902;32;33790;-74
2022/10/05 04:26:59;;;;;;;6.03;4.82;;;;;;;8.55;70.81;100860.69;4482919;32;33102;-73
2022/10/05 04:29:41;;;;;;;9.63;5.70;;;;;;;8.95;69.28;100859.81;4481462;32;33869;-74
2022/10/05 04:32:14;;;;;;;7.43;5.15;;;;;;;8.96;68.60;100854.19;4480633;32;34220;-73
2022/10/05 04:34:51;;;;;;;7.50;5.20;;;;;;;8.92;68.23;100850.25;4479633;32;33956;-73
2022/10/05 04:37:27;;;;;;;8.60;4.75;;;;;;;8.82;69.74;100855.25;4481403;32;33854;-75
2022/10/05 04:40:13;;;;;;;9.63;5.50;;;;;;;8.48;71.72;100854.41;4482688;32;33709;-72
2022/10/05 04:42:54;;;;;;;8.25;5.35;;;;;;;8.47;72.45;100851.94;4479822;32;34408;-77
2022/10/05 04:45:35;;;;;;;7.32;5.07;;;;;;;8.61;72.05;100856.28;4481954;32;34963;-76
2022/10/05 04:48:10;;;;;;;11.48;5.75;;;;;;;8.52;71.69;100860.25;4485308;32;34671;-75
2022/10/05 04:51:06;;;;;;;9.57;6.12;;;;;;;8.05;73.30;100857.47;4484414;32;33829;-77
2022/10/05 04:53:36;;;;;;;10.93;6.12;;;;;;;8.18;73.28;100857.47;4485368;32;34013;-79
2022/10/05 04:56:11;;;;;;;10.52;6.00;;;;;;;8.17;73.27;100860.41;4484121;32;34512;-79
2022/10/05 04:58:48;;;;;;;11.15;6.28;;;;;;;8.72;71.61;100868.34;4484431;32;33548;-78
2022/10/05 05:01:47;;;;;;;9.18;5.95;;;;;;;8.72;71.10;100862.94;4484942;32;34666;-79
2022/10/05 05:04:40;;;;;;;10.18;6.07;;;;;;;8.86;70.20;100853.78;4485058;32;34554;-79
2022/10/05 05:07:25;;;;;;;11.15;6.40;;;;;;;8.21;72.78;100853.56;4484448;32;33831;-79
2022/10/05 05:10:18;;;;;;;12.32;6.25;;;;;;;8.59;71.96;100863.78;4476432;32;34039;-76
2022/10/05 05:13:01;;;;;;;12.40;6.10;;;;;;;8.21;73.09;100862.50;4469006;32;34041;-73
2022/10/05 05:15:49;;;;;;;9.73;6.35;;;;;;;8.65;71.76;100857.53;4482684;32;35204;-81
2022/10/05 05:18:45;;;;;;;9.55;6.00;;;;;;;8.63;72.11;100857.75;4484628;32;33656;-84
2022/10/05 05:21:50;;;;;;;9.63;5.65;;;;;;;8.67;72.20;100846.53;4482737;32;33435;-82
2022/10/05 05:24:24;;;;;;;10.27;6.62;;;;;;;8.55;72.21;100857.97;4484764;32;33948;-75
2022/10/05 05:27:10;;;;;;;12.57;6.40;;;;;;;8.88;70.82;100854.41;4484452;32;34312;-72
2022/10/05 05:30:07;;;;;;;10.80;6.25;;;;;;;8.66;71.56;100859.22;4482616;32;34884;-72
2022/10/05 05:32:54;;;;;;;10.18;6.35;;;;;;;8.92;70.98;100861.06;4481904;32;34286;-77
2022/10/05 05:35:31;;;;;;;11.00;6.62;;;;;;;8.83;70.89;100854.19;4483655;32;34675;-77
2022/10/05 05:38:37;;;;;;;10.25;6.35;;;;;;;9.27;68.52;100866.19;4481188;32;34270;-76
2022/10/05 05:41:12;;;;;;;9.27;6.10;;;;;;;9.04;69.99;100872.91;4471175;32;34345;-75
2022/10/05 05:43:57;;;;;;;12.52;8.32;;;;;;;9.10;69.91;100882.06;4470104;32;33669;-75
2022/10/05 05:46:26;;;;;;;;;;;;;;;8.52;71.89;100879.19;4467727;32;34666;-73
2022/10/05 05:49:17;;;;;;;13.23;7.70;;;;;;;8.67;72.23;100889.81;4474321;32;35142;-75
2022/10/05 05:51:58;;;;;;;10.52;6.78;;;;;;;8.49;74.25;100885.84;4483463;32;34016;-74
2022/10/05 05:54:40;;;;;;;11.73;7.97;;;;;;;9.19;73.14;100890.78;4485193;32;33965;-75
2022/10/05 05:57:13;;;;;;;12.35;7.40;;;;;;;9.40;74.07;100900.53;4485204;32;34947;-75
2022/10/05 05:59:59;;;;;;;10.48;7.05;;;;;;;9.81;73.61;100894.75;4485332;32;34203;-75
2022/10/05 06:02:41;;;;;;;9.73;6.57;;;;;;;10.39;71.62;100906.56;4480763;32;33743;-73
2022/10/05 06:05:22;;;;;;;9.75;6.00;;;;;;;10.43;70.12;100908.63;4470724;32;34262;-72
2022/10/05 06:07:51;;;;;;;9.30;5.75;;;;;;;10.97;68.55;100905.47;4469589;32;34609;-74
2022/10/05 06:10:32;;;;;;;6.87;4.12;;;;;;;11.33;67.23;100912.84;4470255;32;34174;-79
2022/10/05 06:13:05;;;;;;;7.78;4.40;;;;;;;11.84;64.53;100917.06;4471575;32;34762;-74
2022/10/05 06:15:40;;;;;;;7.45;4.93;;;;;;;11.95;64.80;100920.94;4484974;32;33539;-77
2022/10/05 06:18:11;;;;;;;6.07;3.92;;;;;;;12.44;63.21;100935.31;4485088;32;33889;-77
2022/10/05 06:20:48;;;;;;;6.03;3.95;;;;;;;12.72;62.17;100942.00;4485697;32;34195;-80
2022/10/05 06:23:47;;;;;;;6.72;4.18;;;;;;;12.92;62.44;100958.87;4485006;32;33982;-75
2022/10/05 06:26:33;;;;;;;6.12;3.72;;;;;;;12.94;62.12;100958.66;4476232;32;33408;-76
2022/10/05 06:29:04;;;;;;;6.37;4.32;;;;;;;12.76;62.87;100964.16;4485254;32;34639;-78
2022/10/05 06:31:55;;;;;;;6.40;4.00;;;;;;;12.87;62.99;100957.91;4484801;32;34190;-77
2022/10/05 06:34:37;;;;;;;6.68;4.30;;;;;;;13.29;62.40;100960.59;4485231;32;34152;-72
2022/10/05 06:37:11;;;;;;;6.68;3.62;;;;;;;13.60;62.17;100958.53;4485336;32;32978;-73
2022/10/05 06:39:42;;;;;;;5.20;3.90;;;;;;;13.85;60.23;100964.56;4485093;32;33883;-77
2022/10/05 06:42:24;;;;;;;6.32;3.80;;;;;;;14.28;59.50;100959.69;4486377;32;34227;-81
2022/10/05 06:45:15;;;;;;;5.50;3.00;;;;;;;14.50;59.32;100971.56;4485340;32;34546;-77
2022/10/05 06:47:51;;;;;;;6.22;4.57;;;;;;;13.54;62.40;100980.25;4486554;32;33425;-77
2022/10/05 06:50:27;;;;;;;6.37;4.20;;;;;;;13.05;66.01;100973.34;4485083;32;34755;-74
2022/10/05 06:53:13;;;;;;;5.95;3.90;;;;;;;14.47;61.34;100972.06;4486155;32;35032;-73
2022/10/05 06:56:00;;;;;;;5.60;4.07;;;;;;;14.08;61.93;100982.78;4486109;32;34554;-74
2022/10/05 06:58:38;;;;;;;6.47;4.70;;;;;;;14.43;61.74;100981.81;4486239;32;34173;-74
2022/10/05 07:01:11;;;;;;;8.18;4.97;;;;;;;14.93;60.39;100985.72;4485883;32;33853;-74
2022/10/05 07:03:46;;;;;;;7.78;4.47;;;;;;;14.27;62.38;100988.84;4484814;32;35085;-75
2022/10/05 07:06:22;;;;;;;10.45;6.60;;;;;;;14.35;63.63;100993.13;4484880;32;33946;-75
2022/10/05 07:09:27;;;;;;;12.05;8.65;;;;;;;15.12;58.65;100997.25;4485844;32;33753;-76
2022/10/05 07:12:06;;;;;;;14.25;8.60;;;;;;;14.57;59.81;100990.56;4486310;32;33568;-74
2022/10/05 07:15:00;;;;;;;11.60;6.22;;;;;;;14.48;60.49;101005.66;4485091;32;35078;-77
2022/10/05 07:17:43;;;;;;;9.30;5.70;;;;;;;14.93;59.89;101002.94;4484606;32;33941;-75
2022/10/05 07:20:14;;;;;;;9.05;5.68;;;;;;;14.80;62.49;100995.06;4484890;32;33413;-74
2022/10/05 07:23:06;;;;;;;9.65;5.50;;;;;;;15.06;59.54;100996.34;4474133;32;33796;-77
2022/10/05 07:25:41;;;;;;;7.28;5.00;;;;;;;14.78;61.74;100991.75;4470173;32;34072;-76
2022/10/05 07:28:13;;;;;;;7.72;5.15;;;;;;;14.41;64.73;100985.87;4468834;32;33872;-76
2022/10/05 07:31:05;;;;;;;9.82;6.22;;;;;;;14.85;62.97;100984.22;4470039;32;33688;-74
2022/10/05 07:34:14;;;;;;;9.45;5.15;;;;;;;14.99;62.12;100984.75;4470317;32;34132;-74
2022/10/05 07:39:55;;;;;;;7.82;5.60;;;;;;;16.03;57.95;100994.22;4469397;32;33979;-75
2022/10/05 07:42:49;;;;;;;8.32;5.10;;;;;;;15.99;58.02;100998.53;4469034;32;34390;-77
2022/10/05 07:45:29;;;;;;;6.68;5.20;;;;;;;16.60;57.65;100993.75;4469075;32;33759;-77
2022/10/05 07:48:02;;;;;;;8.77;5.18;;;;;;;16.86;56.12;100994.03;4469198;32;32449;-78
2022/10/05 07:50:39;;;;;;;8.75;5.82;;;;;;;16.39;57.43;100998.22;4469934;32;34642;-77
2022/10/05 07:53:18;;;;;;;7.30;5.50;;;;;;;16.39;57.35;100987.25;4468852;32;33446;-78
2022/10/05 07:55:50;;;;;;;7.95;5.00;;;;;;;16.59;56.29;100989.37;4468766;32;34764;-77
2022/10/05 07:58:43;;;;;;;8.93;5.80;;;;;;;16.38;56.36;100999.28;4470070;32;35139;-77
2022/10/05 08:01:31;;;;;;;7.10;5.20;;;;;;;15.94;58.55;100995.75;4468884;32;34039;-77
2022/10/05 08:04:11;;;;;;;7.47;5.62;;;;;;;15.73;60.57;100997.38;4469156;32;34195;-75
2022/10/05 08:06:59;;;;;;;7.53;5.40;;;;;;;15.56;61.54;100998.19;4469996;32;33975;-74
2022/10/05 08:09:48;;;;;;;9.32;5.87;;;;;;;16.13;59.77;100998.97;4468546;32;34920;-74
2022/10/05 08:13:13;;;;;;;11.35;6.10;;;;;;;16.76;57.04;101013.09;4468738;32;33662;-74
2022/10/05 08:15:44;;;;;;;7.78;5.90;;;;;;;16.56;58.70;101008.22;4436354;32;33320;-75
2022/10/05 08:18:36;;;;;;;9.25;6.30;;;;;;;16.70;57.46;101000.44;4423994;32;34719;-77
2022/10/05 08:21:10;;;;;;;7.20;5.00;;;;;;;16.64;58.32;101010.50;4462919;32;34044;-75
2022/10/05 08:23:56;;;;;;;5.78;4.30;;;;;;;16.60;55.44;101006.63;4468657;32;34133;-75
2022/10/05 08:27:00;;;;;;;5.72;4.07;;;;;;;16.89;55.17;100999.00;4469604;32;33379;-77
2022/10/05 08:29:36;;;;;;;6.03;4.37;;;;;;;17.28;54.10;101000.69;4468527;32;34230;-75
2022/10/05 08:32:10;;;;;;;6.30;4.70;;;;;;;17.66;52.77;100985.03;4468714;32;34115;-76
2022/10/05 08:34:47;;;;;;;6.53;4.85;;;;;;;17.91;52.28;100987.13;4468408;32;34488;-74
2022/10/05 08:37:21;;;;;;;6.97;5.07;;;;;;;17.90;54.01;100978.03;4469903;32;34294;-75
2022/10/05 08:39:51;;;;;;;8.07;5.30;;;;;;;18.04;53.84;100981.12;4468633;32;34711;-76
2022/10/05 08:42:40;;;;;;;9.85;4.47;;;;;;;17.76;52.81;100977.66;4469488;32;34258;-76
2022/10/05 08:45:28;;;;;;;6.03;4.50;;;;;;;18.49;52.66;100968.63;4469468;32;34614;-75
2022/10/05 08:48:40;;;;;;;6.30;4.82;;;;;;;18.18;51.66;100975.94;4469570;32;33594;-75
2022/10/05 08:51:45;;;;;;;5.82;4.32;;;;;;;18.29;52.01;100971.31;4468431;32;33992;-75
2022/10/05 08:54:22;;;;;;;7.72;5.12;;;;;;;18.66;50.00;100954.63;4469474;32;35103;-77
2022/10/05 08:57:01;;;;;;;8.23;4.60;;;;;;;18.47;51.00;100957.06;4469418;32;34759;-75
2022/10/05 08:59:51;;;;;;;8.07;4.70;;;;;;;18.28;50.52;100962.25;4466898;32;34300;-73
2022/10/05 09:02:43;;;;;;;9.38;5.15;;;;;;;18.41;50.37;100961.72;4469309;32;33818;-74
2022/10/05 09:05:40;;;;;;;8.68;5.65;;;;;;;18.57;51.34;100964.50;4468803;32;34195;-77
2022/10/05 09:08:22;;;;;;;7.28;5.12;;;;;;;18.44;50.96;100966.69;4468755;32;33983;-78
2022/10/05 09:11:06;;;;;;;9.13;5.60;;;;;;;18.29;52.88;100976.81;4469317;32;33435;-76
2022/10/05 09:13:55;;;;;;;7.80;5.70;;;;;;;18.49;51.13;100979.63;4469419;32;34001;-75
2022/10/05 09:17:00;;;;;;;8.32;5.05;;;;;;;18.94;51.31;100982.72;4467954;32;34172;-73
2022/10/05 09:19:35;;;;;;;6.57;5.50;;;;;;;18.53;51.80;100986.22;4469149;32;33931;-71
2022/10/05 09:22:16;;;;;;;7.62;5.20;;;;;;;19.14;50.24;100990.16;4468948;32;34425;-70
2022/10/05 09:25:07;;;;;;;8.35;4.87;;;;;;;18.84;51.30;100991.78;4468100;32;33697;-77
2022/10/05 09:27:36;;;;;;;7.95;4.93;;;;;;;19.05;50.71;100995.38;4469285;32;34933;-75
2022/10/05 09:30:25;;;;;;;7.05;4.90;;;;;;;19.14;52.34;100999.22;4469526;32;33939;-77
2022/10/05 09:33:24;;;;;;;6.12;4.40;;;;;;;18.69;50.74;101002.75;4469149;32;33593;-75
2022/10/05 09:36:07;;;;;;;7.18;4.37;;;;;;;18.79;51.40;101000.88;4470778;32;34719;-81
2022/10/05 09:39:09;;;;;;;5.82;4.15;;;;;;;19.53;48.97;100993.13;4470580;32;34601;-76
2022/10/05 09:41:53;;;;;;;6.53;4.37;;;;;;;19.81;49.15;100994.47;4471260;32;34688;-76
2022/10/05 09:44:59;;;;;;;9.80;5.15;;;;;;;19.88;47.01;100992.22;4469673;32;33512;-76
2022/10/05 09:47:45;;;;;;;8.38;4.65;;;;;;;20.07;48.00;100992.44;4470875;32;34106;-76
2022/10/05 09:50:25;;;;;;;7.28;4.75;;;;;;;20.68;46.21;101004.28;4471011;32;34054;-76
2022/10/05 09:52:57;;;;;;;8.27;3.87;;;;;;;20.85;45.71;101003.88;4470725;32;34431;-74
2022/10/05 09:55:47;;;;;;;6.53;4.53;;;;;;;20.34;47.38;100984.88;4468913;32;33458;-73
2022/10/05 09:58:32;;;;;;;5.95;3.85;;;;;;;20.02;47.56;100992.47;4469958;32;34520;-73
2022/10/05 10:01:20;;;;;;;5.57;3.67;;;;;;;20.22;46.82;100985.22;4470865;32;34311;-76
2022/10/05 10:04:24;;;;;;;5.20;3.45;;;;;;;20.24;45.70;100977.50;4469719;32;33934;-76
2022/10/05 10:07:35;;;;;;;6.03;3.95;;;;;;;20.12;47.27;100988.84;4471199;32;33522;-76
2022/10/05 10:10:11;;;;;;;7.43;4.28;;;;;;;20.27;47.82;100990.69;4470795;32;34724;-76
2022/10/05 10:13:00;;;;;;;5.85;3.60;;;;;;;20.10;47.68;100984.72;4470593;32;33612;-78
2022/10/05 10:15:39;;;;;;;6.72;3.87;;;;;;;19.72;49.92;100981.53;4470629;32;34106;-74
2022/10/05 10:18:33;;;;;;;6.75;3.92;;;;;;;20.13;46.75;100986.88;4469443;32;34690;-78
2022/10/05 10:21:11;;;;;;;4.50;3.40;;;;;;;20.77;45.30;100988.75;4470371;32;33945;-75
2022/10/05 10:24:14;;;;;;;5.50;3.80;;;;;;;20.58;46.91;100987.78;4470633;32;34319;-75
2022/10/05 10:26:44;;;;;;;5.68;3.25;;;;;;;20.84;45.61;100991.19;4470751;32;34630;-72
2022/10/05 10:29:20;;;;;;;5.22;3.17;;;;;;;20.74;45.28;100974.75;4470577;32;33730;-73
2022/10/05 10:31:57;;;;;;;7.20;3.70;;;;;;;20.78;46.14;100982.13;4470308;32;34529;-76
2022/10/05 10:35:03;;;;;;;4.43;3.08;;;;;;;21.05;45.13;100986.34;4470391;32;35162;-78
2022/10/05 10:38:16;;;;;;;4.62;3.40;;;;;;;21.09;44.12;100982.72;4470272;32;33992;-78
2022/10/05 10:40:55;;;;;;;5.45;3.45;;;;;;;21.30;42.65;100975.06;4469350;32;33338;-78
2022/10/05 10:43:33;;;;;;;6.90;3.53;;;;;;;21.23;43.67;100976.50;4470081;32;35086;-79
2022/10/05 10:46:19;;;;;;;5.30;3.22;;;;;;;21.20;43.26;100982.63;4469428;32;34075;-78
2022/10/05 10:48:50;;;;;;;4.95;3.37;;;;;;;20.98;44.44;100988.63;4468728;32;33587;-78
2022/10/05 10:51:29;;;;;;;5.90;3.50;;;;;;;20.64;44.77;100981.94;4470533;32;33622;-75
2022/10/05 10:54:05;;;;;;;4.95;3.10;;;;;;;21.02;43.95;100987.75;4470387;32;34785;-75
2022/10/05 10:57:04;;;;;;;6.03;3.25;;;;;;;20.95;45.34;100981.75;4469131;32;33943;-78
2022/10/05 11:00:06;;;;;;;5.97;3.22;;;;;;;20.88;44.56;100983.97;4466505;32;34629;-79
2022/10/05 11:02:58;;;;;;;5.37;3.92;;;;;;;21.01;44.68;100986.09;4470258;32;33540;-80
2022/10/05 11:05:48;;;;;;;3.67;2.75;;;;;;;21.11;45.87;100979.66;4470102;32;34651;-75
2022/10/05 11:08:33;;;;;;;6.22;3.70;;;;;;;21.09;45.95;100977.19;4470407;32;34467;-76
2022/10/05 11:11:18;;;;;;;5.35;3.40;;;;;;;21.41;44.87;100983.25;4468917;32;34108;-75
2022/10/05 11:14:20;;;;;;;4.28;3.33;;;;;;;21.54;44.60;100988.12;4469023;32;34368;-75
2022/10/05 11:17:06;;;;;;;4.65;3.15;;;;;;;21.07;46.44;100979.41;4469041;32;33855;-75
2022/10/05 11:20:11;;;;;;;4.68;3.40;;;;;;;21.26;45.31;100970.44;4469850;32;34990;-74
2022/10/05 11:23:04;;;;;;;3.92;3.22;;;;;;;21.31;45.50;100968.41;4470299;32;33956;-75
2022/10/05 11:25:43;;;;;;;5.40;3.70;;;;;;;21.05;46.37;100969.78;4470053;32;33453;-75
2022/10/05 11:28:40;;;;;;;5.90;3.20;;;;;;;21.07;47.60;100970.31;4469212;32;34097;-75
2022/10/05 11:31:39;;;;;;;5.10;3.60;;;;;;;21.18;46.32;100966.34;4468842;32;33902;-76
2022/10/05 11:34:19;;;;;;;6.10;3.37;;;;;;;21.64;46.08;100965.06;4470333;32;34654;-75
2022/10/05 11:37:03;;;;;;;3.75;2.60;;;;;;;21.46;46.51;100959.19;4470391;32;33578;-75
2022/10/05 11:39:37;;;;;;;3.78;2.60;;;;;;;21.65;44.53;100947.41;4470289;32;33959;-75
2022/10/05 11:42:27;;;;;;;4.07;2.90;;;;;;;22.12;41.90;100951.25;4468858;32;34066;-76
2022/10/05 11:45:22;;;;;;;3.80;2.25;;;;;;;21.98;41.48;100945.59;4468583;32;34036;-74
2022/10/05 11:47:53;;;;;;;7.25;3.15;;;;;;;22.02;41.89;100940.31;4470067;32;33489;-76
2022/10/05 11:50:25;;;;;;;4.50;2.78;;;;;;;22.33;41.99;100932.44;4469411;32;33973;-75
2022/10/05 11:52:57;;;;;;;4.32;2.70;;;;;;;22.42;41.27;100930.66;4470187;32;35037;-76
2022/10/05 11:55:52;;;;;;;4.37;2.65;;;;;;;22.79;40.94;100934.50;4468988;32;33902;-76
2022/10/05 11:58:26;;;;;;;4.40;2.30;;;;;;;22.68;42.06;100928.31;4470291;32;34254;-75
2022/10/05 12:01:05;;;;;;;2.95;1.95;;;;;;;22.53;39.43;100925.81;4470125;32;34135;-76
2022/10/05 12:03:57;;;;;;;3.28;2.05;;;;;;;22.83;38.90;100923.62;4468930;32;33738;-75
2022/10/05 12:06:37;;;;;;;2.17;1.75;;;;;;;22.75;38.55;100919.63;4469630;32;34424;-76
2022/10/05 12:09:34;;;;;;;3.17;2.10;;;;;;;22.72;39.74;100911.91;4469994;32;34478;-75
2022/10/05 12:12:28;;;;;;;3.15;1.87;;;;;;;22.85;41.86;100904.78;4469073;32;34512;-74
2022/10/05 12:15:02;;;;;;;2.47;1.55;;;;;;;22.84;41.31;100911.47;4467086;32;33864;-76
2022/10/05 12:17:39;;;;;;;2.53;1.77;;;;;;;22.93;39.21;100912.41;4468830;32;34803;-74
2022/10/05 12:20:13;;;;;;;2.78;1.90;;;;;;;22.56;37.89;100908.59;4468454;32;33450;-79
2022/10/05 12:22:45;;;;;;;3.67;1.73;;;;;;;22.35;38.80;100907.25;4468716;32;33821;-83
2022/10/05 12:25:34;;;;;;;3.53;1.90;;;;;;;22.18;39.19;100907.75;4468458;32;35103;-74
2022/10/05 12:28:08;;;;;;;1.87;1.35;;;;;;;22.25;38.40;100909.06;4469741;32;34771;-75
2022/10/05 12:31:13;;;;;;;2.10;1.50;;;;;;;22.37;39.85;100911.37;4465726;32;87155;-83
2022/10/05 12:34:05;;;;;;;2.65;1.60;;;;;;;22.21;39.64;100907.16;4469342;32;33857;-83
2022/10/05 12:36:49;;;;;;;5.32;1.70;;;;;;;22.11;39.90;100905.38;4469876;32;35099;-75
2022/10/05 12:39:48;;;;;;;1.62;1.40;;;;;;;21.97;39.44;100901.72;4468705;32;34751;-75
2022/10/05 12:42:18;;;;;;;1.67;1.58;;;;;;;22.44;39.55;100909.06;4469512;32;34369;-75
2022/10/05 12:45:13;;;;;;;2.78;1.90;;;;;;;21.64;39.83;100902.41;4469852;32;33994;-74